createdAt,value
2017-10-19T00:01:10.601Z,11.23
2017-10-19T00:03:38.259Z,10.70
2017-10-19T00:06:05.883Z,10.33
2017-10-19T00:08:33.482Z,10.87
2017-10-19T00:11:01.111Z,10.00
2017-10-19T00:13:28.717Z,12.30
2017-10-19T00:15:56.342Z,9.60
2017-10-19T00:18:23.933Z,9.17
2017-10-19T00:20:51.594Z,10.57
2017-10-19T00:23:19.194Z,10.23
2017-10-19T00:25:46.822Z,8.90
2017-10-19T00:28:14.418Z,9.30
2017-10-19T00:30:42.056Z,9.33
2017-10-19T00:33:09.729Z,11.93
2017-10-19T00:35:37.349Z,9.07
2017-10-19T00:38:04.919Z,9.97
2017-10-19T00:40:32.559Z,10.60
2017-10-19T00:43:00.164Z,9.67
2017-10-19T00:45:27.798Z,10.40
2017-10-19T00:47:55.423Z,9.97
2017-10-19T00:50:23.066Z,10.57
2017-10-19T00:52:50.684Z,10.20
2017-10-19T00:55:18.306Z,9.40
2017-10-19T00:57:45.930Z,9.00
2017-10-19T01:00:13.587Z,11.93
2017-10-19T01:02:41.188Z,9.90
2017-10-19T01:05:08.795Z,11.13
2017-10-19T01:07:36.434Z,11.53
2017-10-19T01:10:04.090Z,10.97
2017-10-19T01:12:31.700Z,11.70
2017-10-19T01:14:59.465Z,10.40
2017-10-19T01:17:27.132Z,10.40
2017-10-19T01:19:54.750Z,11.73
2017-10-19T01:22:22.382Z,11.63
2017-10-19T01:24:49.975Z,11.17
2017-10-19T01:27:17.586Z,9.93
2017-10-19T01:29:45.195Z,10.77
2017-10-19T01:32:12.823Z,11.00
2017-10-19T01:34:40.411Z,10.47
2017-10-19T01:37:08.040Z,11.10
2017-10-19T01:39:35.623Z,11.13
2017-10-19T01:42:03.264Z,10.87
2017-10-19T01:44:30.850Z,9.33
2017-10-19T01:46:58.467Z,10.60
2017-10-19T01:49:26.071Z,10.50
2017-10-19T01:51:53.711Z,10.10
2017-10-19T01:54:21.349Z,10.60
2017-10-19T01:56:48.967Z,12.47
2017-10-19T01:59:16.565Z,10.27
2017-10-19T02:01:44.210Z,10.83
2017-10-19T02:04:11.888Z,11.13
2017-10-19T02:06:39.507Z,12.60
2017-10-19T02:09:07.146Z,11.93
2017-10-19T02:11:34.784Z,12.47
2017-10-19T02:14:02.392Z,11.43
2017-10-19T02:16:30.016Z,12.03
2017-10-19T02:18:57.617Z,12.27
2017-10-19T02:21:25.258Z,10.50
2017-10-19T02:23:52.850Z,10.67
2017-10-19T02:26:20.499Z,11.20
2017-10-19T02:28:48.099Z,11.27
2017-10-19T02:31:15.810Z,10.47
2017-10-19T02:33:43.459Z,10.87
2017-10-19T02:36:11.121Z,11.40
2017-10-19T02:38:38.755Z,12.17
2017-10-19T02:41:06.367Z,11.37
2017-10-19T02:43:34.008Z,12.10
2017-10-19T02:46:01.608Z,11.40
2017-10-19T02:48:29.243Z,12.17
2017-10-19T02:50:56.874Z,11.50
2017-10-19T02:53:24.520Z,12.50
2017-10-19T02:55:52.112Z,11.77
2017-10-19T02:58:19.779Z,11.40
2017-10-19T03:00:47.374Z,11.70
2017-10-19T03:03:15.007Z,12.40
2017-10-19T03:05:42.616Z,12.00
2017-10-19T03:08:10.255Z,11.83
2017-10-19T03:10:37.855Z,13.13
2017-10-19T03:13:05.506Z,12.93
2017-10-19T03:15:33.115Z,11.87
2017-10-19T03:18:00.759Z,11.93
2017-10-19T03:20:28.379Z,12.73
2017-10-19T03:22:55.994Z,10.97
2017-10-19T03:25:23.618Z,11.53
2017-10-19T03:27:51.296Z,12.60
2017-10-19T03:30:18.921Z,11.60
2017-10-19T03:32:46.510Z,12.20
2017-10-19T03:35:14.135Z,11.47
2017-10-19T03:37:41.749Z,11.90
2017-10-19T03:40:09.378Z,11.80
2017-10-19T03:42:37.076Z,12.97
2017-10-19T03:45:04.722Z,13.57
2017-10-19T03:47:32.299Z,11.80
2017-10-19T03:49:59.934Z,11.60
2017-10-19T03:52:27.577Z,11.47
2017-10-19T03:54:55.222Z,12.37
2017-10-19T03:57:22.826Z,10.70
2017-10-19T03:59:50.452Z,11.97
2017-10-19T04:02:18.038Z,13.70
2017-10-19T04:04:45.675Z,12.93
2017-10-19T04:07:13.271Z,11.67
2017-10-19T04:09:40.962Z,11.00
2017-10-19T04:12:08.572Z,12.13
2017-10-19T04:14:36.327Z,12.20
2017-10-19T04:17:03.942Z,12.57
2017-10-19T04:19:31.543Z,12.53
2017-10-19T04:21:59.187Z,43.70
2017-10-19T04:24:26.824Z,45.73
2017-10-19T04:26:54.459Z,13.20
2017-10-19T04:29:22.834Z,13.27
2017-10-19T04:31:50.522Z,11.60
2017-10-19T04:34:18.127Z,12.80
2017-10-19T04:36:45.784Z,10.80
2017-10-19T04:39:13.409Z,12.53
2017-10-19T04:41:41.012Z,13.80
2017-10-19T04:44:08.649Z,11.40
2017-10-19T04:46:36.283Z,11.57
2017-10-19T04:49:03.926Z,11.23
2017-10-19T04:51:31.548Z,10.93
2017-10-19T04:53:59.206Z,22.07
2017-10-19T04:56:26.831Z,16.47
2017-10-19T04:58:54.466Z,12.13
2017-10-19T05:01:22.067Z,10.90
2017-10-19T05:03:49.701Z,11.10
2017-10-19T05:06:17.306Z,11.03
2017-10-19T05:08:44.930Z,10.90
2017-10-19T05:11:12.536Z,12.17
2017-10-19T05:13:40.330Z,10.90
2017-10-19T05:16:07.918Z,11.13
2017-10-19T05:18:35.538Z,11.80
2017-10-19T05:21:03.208Z,12.37
2017-10-19T05:23:30.852Z,10.97
2017-10-19T05:25:58.505Z,11.37
2017-10-19T05:28:26.123Z,10.30
2017-10-19T05:30:53.778Z,11.80
2017-10-19T05:33:21.394Z,12.17
2017-10-19T05:35:49.031Z,11.73
2017-10-19T05:38:16.621Z,11.87
2017-10-19T05:40:44.263Z,11.77
2017-10-19T05:43:11.872Z,11.73
2017-10-19T05:45:39.504Z,11.93
2017-10-19T05:48:07.126Z,11.20
2017-10-19T05:50:34.855Z,11.90
2017-10-19T05:53:02.470Z,12.50
2017-10-19T05:55:30.199Z,12.07
2017-10-19T05:57:57.807Z,13.57
2017-10-19T06:00:25.435Z,11.30
2017-10-19T06:02:53.028Z,11.97
2017-10-19T06:05:20.742Z,11.70
2017-10-19T06:07:48.362Z,12.93
2017-10-19T06:10:15.994Z,12.70
2017-10-19T06:12:43.594Z,12.60
2017-10-19T06:15:11.311Z,12.13
2017-10-19T06:17:38.918Z,12.47
2017-10-19T06:20:06.563Z,12.23
2017-10-19T06:22:34.182Z,12.50
2017-10-19T06:25:01.808Z,10.63
2017-10-19T06:27:29.419Z,10.80
2017-10-19T06:29:57.064Z,11.97
2017-10-19T06:32:24.658Z,10.87
2017-10-19T06:34:52.295Z,12.17
2017-10-19T06:37:19.892Z,12.13
2017-10-19T06:39:47.537Z,11.70
2017-10-19T06:42:15.127Z,11.60
2017-10-19T06:44:42.783Z,14.83
2017-10-19T06:47:10.416Z,13.53
2017-10-19T06:49:38.099Z,13.00
2017-10-19T06:52:05.707Z,13.57
2017-10-19T06:54:33.337Z,12.30
2017-10-19T06:57:00.944Z,14.10
2017-10-19T06:59:28.538Z,11.80
2017-10-19T07:01:56.174Z,12.37
2017-10-19T07:04:23.775Z,13.10
2017-10-19T07:06:51.429Z,14.20
2017-10-19T07:09:19.031Z,11.33
2017-10-19T07:11:46.676Z,14.20
2017-10-19T07:14:14.267Z,13.93
2017-10-19T07:16:41.907Z,14.17
2017-10-19T07:19:09.491Z,15.73
2017-10-19T07:21:37.122Z,15.00
2017-10-19T07:24:04.798Z,13.57
2017-10-19T07:26:32.431Z,14.33
2017-10-19T07:29:00.046Z,15.47
2017-10-19T07:31:27.670Z,15.27
2017-10-19T07:33:55.268Z,15.00
2017-10-19T07:36:22.895Z,14.37
2017-10-19T07:38:50.528Z,13.90
2017-10-19T07:41:18.186Z,15.30
2017-10-19T07:43:45.791Z,14.90
2017-10-19T07:46:13.483Z,16.10
2017-10-19T07:48:41.089Z,15.30
2017-10-19T07:51:08.690Z,15.67
2017-10-19T07:53:36.339Z,14.70
2017-10-19T07:56:03.939Z,17.17
2017-10-19T07:58:31.584Z,15.60
2017-10-19T08:00:59.204Z,14.40
2017-10-19T08:03:26.844Z,14.33
2017-10-19T08:05:54.451Z,13.47
2017-10-19T08:08:22.092Z,16.30
2017-10-19T08:10:49.709Z,15.83
2017-10-19T08:13:17.334Z,13.50
2017-10-19T08:15:44.970Z,15.50
2017-10-19T08:18:12.605Z,15.00
2017-10-19T08:20:40.203Z,16.53
2017-10-19T08:23:07.838Z,16.03
2017-10-19T08:25:35.464Z,15.10
2017-10-19T08:28:03.145Z,14.97
2017-10-19T08:30:30.774Z,14.03
2017-10-19T08:32:58.427Z,15.00
2017-10-19T08:35:26.074Z,14.53
2017-10-19T08:37:53.743Z,13.77
2017-10-19T08:40:21.403Z,13.90
2017-10-19T08:42:49.079Z,13.30
2017-10-19T08:45:16.682Z,13.33
2017-10-19T08:47:44.335Z,14.23
2017-10-19T08:50:11.959Z,13.27
2017-10-19T08:52:39.614Z,14.80
2017-10-19T08:55:07.787Z,14.57
2017-10-19T08:57:35.427Z,12.87
2017-10-19T09:00:03.055Z,12.83
2017-10-19T09:02:30.744Z,13.20
2017-10-19T09:04:58.372Z,13.50
2017-10-19T09:07:26.021Z,14.40
2017-10-19T09:09:53.631Z,14.17
2017-10-19T09:12:21.277Z,13.83
2017-10-19T09:14:48.903Z,14.43
2017-10-19T09:17:16.564Z,12.17
2017-10-19T09:19:44.174Z,13.00
2017-10-19T09:22:11.823Z,13.13
2017-10-19T09:24:39.428Z,12.90
2017-10-19T09:27:07.068Z,12.97
2017-10-19T09:29:34.679Z,12.90
2017-10-19T09:32:02.353Z,12.83
2017-10-19T09:34:29.971Z,11.70
2017-10-19T09:36:57.633Z,11.37
2017-10-19T09:39:25.243Z,12.20
2017-10-19T09:41:52.870Z,10.60
2017-10-19T09:44:20.486Z,11.40
2017-10-19T09:46:48.160Z,11.03
2017-10-19T09:49:15.756Z,10.63
2017-10-19T09:51:43.447Z,11.10
2017-10-19T09:54:11.207Z,10.97
2017-10-19T09:56:38.887Z,10.60
2017-10-19T09:59:06.539Z,10.20
2017-10-19T10:01:34.159Z,10.10
2017-10-19T10:04:01.791Z,10.20
2017-10-19T10:06:29.422Z,10.57
2017-10-19T10:08:57.063Z,10.80
2017-10-19T10:11:24.686Z,11.93
2017-10-19T10:13:52.295Z,11.90
2017-10-19T10:16:19.907Z,10.63
2017-10-19T10:18:47.543Z,11.57
2017-10-19T10:21:15.148Z,9.90
2017-10-19T10:23:42.775Z,10.40
2017-10-19T10:26:10.433Z,11.93
2017-10-19T10:28:38.069Z,11.37
2017-10-19T10:31:05.675Z,13.03
2017-10-19T10:33:33.349Z,10.13
2017-10-19T10:36:01.065Z,10.93
2017-10-19T10:38:28.731Z,10.93
2017-10-19T10:40:56.346Z,10.67
2017-10-19T10:43:24.014Z,9.43
2017-10-19T10:45:51.618Z,9.33
2017-10-19T10:48:19.240Z,9.63
2017-10-19T10:50:46.871Z,9.30
2017-10-19T10:53:14.511Z,10.17
2017-10-19T10:55:43.752Z,9.80
2017-10-19T10:58:11.443Z,9.80
2017-10-19T11:00:39.059Z,8.80
2017-10-19T11:03:06.693Z,8.73
2017-10-19T11:05:34.299Z,9.10
2017-10-19T11:08:01.927Z,8.03
2017-10-19T11:10:29.531Z,8.47
2017-10-19T11:12:57.175Z,8.50
2017-10-19T11:15:24.785Z,8.27
2017-10-19T11:17:52.526Z,7.60
2017-10-19T11:20:20.140Z,8.60
2017-10-19T11:22:47.768Z,7.57
2017-10-19T11:25:15.411Z,7.23
2017-10-19T11:27:43.026Z,6.83
2017-10-19T11:30:10.703Z,7.60
2017-10-19T11:32:38.311Z,8.33
2017-10-19T11:35:05.953Z,6.93
2017-10-19T11:37:33.584Z,8.13
2017-10-19T11:40:01.225Z,7.60
2017-10-19T11:42:28.836Z,7.40
2017-10-19T11:44:56.576Z,8.80
2017-10-19T11:47:24.189Z,7.00
2017-10-19T11:49:51.820Z,15.43
2017-10-19T11:52:19.507Z,7.53
2017-10-19T11:54:47.165Z,7.30
2017-10-19T11:57:14.829Z,7.40
2017-10-19T11:59:42.510Z,6.80
2017-10-19T12:02:10.148Z,8.87
2017-10-19T12:04:37.800Z,7.20
2017-10-19T12:07:05.409Z,7.60
2017-10-19T12:09:33.052Z,6.67
2017-10-19T12:12:00.678Z,7.20
2017-10-19T12:14:28.384Z,7.10
2017-10-19T12:16:56.011Z,6.80
2017-10-19T12:19:23.663Z,6.63
2017-10-19T12:21:51.280Z,6.70
2017-10-19T12:24:18.943Z,7.37
2017-10-19T12:26:46.564Z,6.77
2017-10-19T12:29:14.217Z,6.63
2017-10-19T12:31:41.841Z,6.20
2017-10-19T12:34:09.490Z,6.00
2017-10-19T12:36:37.137Z,7.00
2017-10-19T12:39:04.782Z,6.33
2017-10-19T12:41:32.386Z,7.00
2017-10-19T12:44:00.026Z,6.70
2017-10-19T12:46:27.647Z,6.80
2017-10-19T12:48:55.290Z,7.23
2017-10-19T12:51:22.935Z,8.40
2017-10-19T12:53:50.637Z,6.97
2017-10-19T12:56:18.260Z,6.90
2017-10-19T12:58:45.896Z,6.00
2017-10-19T13:01:13.533Z,6.87
2017-10-19T13:03:41.148Z,6.60
2017-10-19T13:06:08.823Z,6.80
2017-10-19T13:08:36.434Z,6.43
2017-10-19T13:11:04.092Z,6.67
2017-10-19T13:13:31.719Z,6.40
2017-10-19T13:15:59.357Z,4.90
2017-10-19T13:18:26.964Z,7.40
2017-10-19T13:20:54.603Z,6.67
2017-10-19T13:23:22.225Z,5.60
2017-10-19T13:25:49.869Z,6.13
2017-10-19T13:28:17.504Z,6.50
2017-10-19T13:30:45.167Z,9.33
2017-10-19T13:33:12.772Z,8.00
2017-10-19T13:35:40.589Z,7.50
2017-10-19T13:38:08.207Z,8.10
2017-10-19T13:40:35.881Z,6.90
2017-10-19T13:43:03.507Z,14.20
2017-10-19T13:45:31.174Z,8.33
2017-10-19T13:47:58.777Z,7.00
2017-10-19T13:50:26.440Z,8.17
2017-10-19T13:52:54.105Z,7.80
2017-10-19T13:55:21.808Z,6.93
2017-10-19T13:57:49.502Z,8.33
2017-10-19T14:00:17.152Z,7.07
2017-10-19T14:02:44.767Z,7.00
2017-10-19T14:05:12.547Z,8.10
2017-10-19T14:07:40.155Z,7.43
2017-10-19T14:10:07.827Z,7.33
2017-10-19T14:12:35.453Z,8.00
2017-10-19T14:15:03.096Z,8.30
2017-10-19T14:17:30.732Z,8.00
2017-10-19T14:19:58.415Z,8.23
2017-10-19T14:22:26.081Z,6.43
2017-10-19T14:24:53.740Z,7.20
2017-10-19T14:27:21.340Z,7.13
2017-10-19T14:29:49.000Z,7.33
2017-10-19T14:32:16.640Z,8.33
2017-10-19T14:34:44.380Z,7.33
2017-10-19T14:37:12.004Z,7.63
2017-10-19T14:39:39.670Z,6.97
2017-10-19T14:42:07.345Z,7.50
2017-10-19T14:44:34.969Z,7.40
2017-10-19T14:47:02.630Z,7.80
2017-10-19T14:49:30.235Z,6.63
2017-10-19T14:51:57.884Z,8.60
2017-10-19T14:54:25.512Z,6.50
2017-10-19T14:56:53.165Z,7.43
2017-10-19T14:59:20.812Z,6.43
2017-10-19T15:01:48.488Z,8.90
2017-10-19T15:04:16.104Z,6.50
2017-10-19T15:06:43.757Z,7.33
2017-10-19T15:09:11.378Z,6.70
2017-10-19T15:11:39.125Z,6.83
2017-10-19T15:14:06.745Z,7.50
2017-10-19T15:16:34.406Z,6.93
2017-10-19T15:19:02.033Z,6.00
2017-10-19T15:21:29.756Z,6.47
2017-10-19T15:23:57.388Z,6.73
2017-10-19T15:26:25.055Z,5.93
2017-10-19T15:28:52.711Z,6.90
2017-10-19T15:31:20.372Z,6.43
2017-10-19T15:33:47.996Z,6.00
2017-10-19T15:36:15.640Z,6.47
2017-10-19T15:38:43.242Z,7.07
2017-10-19T15:41:10.920Z,7.50
2017-10-19T15:43:38.555Z,7.40
2017-10-19T15:46:06.197Z,6.40
2017-10-19T15:48:33.843Z,6.30
2017-10-19T15:51:13.252Z,6.70
2017-10-19T15:53:40.871Z,6.37
2017-10-19T15:56:08.555Z,7.87
2017-10-19T15:58:36.204Z,7.03
2017-10-19T16:01:04.396Z,7.83
2017-10-19T16:03:32.093Z,7.40
2017-10-19T16:05:59.704Z,7.10
2017-10-19T16:08:27.417Z,6.23
2017-10-19T16:10:55.029Z,7.57
2017-10-19T16:13:22.664Z,7.20
2017-10-19T16:15:50.273Z,7.57
2017-10-19T16:18:17.923Z,7.40
2017-10-19T16:20:45.523Z,7.23
2017-10-19T16:23:13.164Z,6.97
2017-10-19T16:25:40.788Z,7.70
2017-10-19T16:28:08.428Z,7.70
2017-10-19T16:30:36.148Z,7.80
2017-10-19T16:33:03.892Z,7.00
2017-10-19T16:35:31.514Z,7.03
2017-10-19T16:37:59.145Z,7.33
2017-10-19T16:40:26.759Z,6.47
2017-10-19T16:42:54.394Z,8.30
2017-10-19T16:45:22.087Z,15.40
2017-10-19T16:47:49.725Z,8.83
2017-10-19T16:50:17.349Z,6.33
2017-10-19T16:52:44.987Z,7.17
2017-10-19T16:55:12.620Z,7.27
2017-10-19T16:57:40.287Z,7.30
2017-10-19T17:00:07.880Z,6.97
2017-10-19T17:02:35.544Z,6.93
2017-10-19T17:05:03.152Z,6.40
2017-10-19T17:07:30.878Z,6.37
2017-10-19T17:09:58.487Z,6.83
2017-10-19T17:12:26.187Z,8.07
2017-10-19T17:14:53.812Z,7.80
2017-10-19T17:17:21.480Z,8.43
2017-10-19T17:19:49.108Z,7.70
2017-10-19T17:22:16.765Z,8.83
2017-10-19T17:24:44.367Z,8.23
2017-10-19T17:27:12.029Z,10.00
2017-10-19T17:29:39.639Z,7.57
2017-10-19T17:32:07.281Z,8.57
2017-10-19T17:34:34.900Z,6.87
2017-10-19T17:37:02.555Z,7.87
2017-10-19T17:39:30.244Z,7.57
2017-10-19T17:41:57.899Z,8.40
2017-10-19T17:44:25.547Z,8.43
2017-10-19T17:46:53.163Z,8.37
2017-10-19T17:49:20.849Z,7.53
2017-10-19T17:51:48.501Z,7.87
2017-10-19T17:54:16.158Z,7.23
2017-10-19T17:56:43.832Z,7.90
2017-10-19T17:59:13.490Z,7.50
2017-10-19T18:01:41.134Z,9.03
2017-10-19T18:04:08.801Z,7.53
2017-10-19T18:06:36.617Z,10.03
2017-10-19T18:09:04.272Z,7.90
2017-10-19T18:11:31.939Z,7.70
2017-10-19T18:13:59.611Z,9.50
2017-10-19T18:16:27.220Z,8.97
2017-10-19T18:18:54.997Z,7.07
2017-10-19T18:21:22.619Z,9.17
2017-10-19T18:23:50.331Z,7.40
2017-10-19T18:26:17.930Z,8.40
2017-10-19T18:28:45.552Z,7.63
2017-10-19T18:31:13.184Z,7.70
2017-10-19T18:33:40.798Z,8.20
2017-10-19T18:36:08.452Z,9.30
2017-10-19T18:38:36.160Z,7.77
2017-10-19T18:41:03.791Z,8.60
2017-10-19T18:43:31.391Z,8.10
2017-10-19T18:45:59.052Z,9.10
2017-10-19T18:48:26.670Z,8.70
2017-10-19T18:50:54.264Z,9.80
2017-10-19T18:53:21.877Z,12.97
2017-10-19T18:55:49.672Z,8.93
2017-10-19T18:58:17.262Z,8.97
2017-10-19T19:00:44.923Z,9.30
2017-10-19T19:03:12.539Z,9.17
2017-10-19T19:05:40.192Z,9.03
2017-10-19T19:08:07.809Z,9.40
2017-10-19T19:10:35.477Z,8.10
2017-10-19T19:13:03.090Z,9.10
2017-10-19T19:15:30.870Z,8.80
2017-10-19T19:17:58.468Z,8.80
2017-10-19T19:20:26.168Z,8.43
2017-10-19T19:22:53.799Z,9.47
2017-10-19T19:25:21.436Z,8.03
2017-10-19T19:27:49.140Z,8.90
2017-10-19T19:30:16.795Z,9.57
2017-10-19T19:32:44.435Z,9.60
2017-10-19T19:35:12.290Z,8.77
2017-10-19T19:37:39.921Z,8.20
2017-10-19T19:40:07.551Z,8.87
2017-10-19T19:42:35.155Z,8.97
2017-10-19T19:45:02.898Z,8.70
2017-10-19T19:47:30.523Z,17.40
2017-10-19T19:49:58.172Z,12.30
2017-10-19T19:52:25.775Z,9.30
2017-10-19T19:54:53.427Z,8.90
2017-10-19T19:57:21.002Z,9.23
2017-10-19T19:59:48.658Z,9.13
2017-10-19T20:02:16.387Z,9.13
2017-10-19T20:04:44.056Z,10.27
2017-10-19T20:07:11.666Z,9.27
2017-10-19T20:09:39.287Z,8.70
2017-10-19T20:12:06.883Z,9.17
2017-10-19T20:14:34.552Z,9.33
2017-10-19T20:17:02.163Z,8.87
2017-10-19T20:19:29.807Z,9.57
2017-10-19T20:21:57.439Z,10.20
2017-10-19T20:24:25.062Z,9.63
2017-10-19T20:26:52.665Z,10.07
2017-10-19T20:29:20.316Z,9.77
2017-10-19T20:31:47.910Z,10.50
2017-10-19T20:34:15.544Z,9.70
2017-10-19T20:36:43.156Z,11.30
2017-10-19T20:39:10.822Z,9.37
2017-10-19T20:41:38.449Z,9.37
2017-10-19T20:44:06.264Z,9.90
2017-10-19T20:46:33.908Z,10.20
2017-10-19T20:49:01.573Z,11.03
2017-10-19T20:51:30.257Z,10.53
2017-10-19T20:53:57.889Z,9.40
2017-10-19T20:56:25.491Z,10.17
2017-10-19T20:58:53.142Z,10.70
2017-10-19T21:01:20.754Z,10.30
2017-10-19T21:03:48.399Z,9.97
2017-10-19T21:06:16.027Z,9.90
2017-10-19T21:08:43.662Z,10.73
2017-10-19T21:11:11.284Z,9.90
2017-10-19T21:13:38.923Z,11.70
2017-10-19T21:16:06.559Z,12.40
2017-10-19T21:18:34.203Z,11.93
2017-10-19T21:21:01.829Z,11.23
2017-10-19T21:23:29.459Z,11.00
2017-10-19T21:25:57.075Z,9.50
2017-10-19T21:28:24.754Z,11.40
2017-10-19T21:30:52.375Z,10.73
2017-10-19T21:33:20.083Z,10.13
2017-10-19T21:35:47.696Z,10.50
2017-10-19T21:38:15.327Z,9.93
2017-10-19T21:40:42.960Z,10.70
2017-10-19T21:43:10.594Z,10.47
2017-10-19T21:45:38.189Z,10.57
2017-10-19T21:48:05.841Z,9.43
2017-10-19T21:50:33.439Z,10.10
2017-10-19T21:53:01.071Z,11.20
2017-10-19T21:55:28.665Z,9.57
2017-10-19T21:57:56.310Z,8.53
2017-10-19T22:00:23.932Z,10.23
2017-10-19T22:02:51.586Z,10.27
2017-10-19T22:05:20.053Z,9.67
2017-10-19T22:07:47.687Z,9.00
2017-10-19T22:10:15.282Z,9.63
2017-10-19T22:12:42.938Z,10.10
2017-10-19T22:15:10.550Z,9.47
2017-10-19T22:17:38.134Z,9.20
2017-10-19T22:20:05.768Z,9.37
2017-10-19T22:22:33.375Z,10.23
2017-10-19T22:25:01.031Z,9.00
2017-10-19T22:27:28.637Z,9.13
2017-10-19T22:29:56.404Z,8.43
2017-10-19T22:32:24.004Z,9.03
2017-10-19T22:34:51.646Z,9.33
2017-10-19T22:37:19.290Z,9.10
2017-10-19T22:39:46.914Z,9.00
2017-10-19T22:42:14.518Z,9.03
2017-10-19T22:44:42.306Z,8.53
2017-10-19T22:47:10.016Z,8.10
2017-10-19T22:49:37.687Z,8.03
2017-10-19T22:52:05.345Z,7.27
2017-10-19T22:54:33.092Z,7.50
2017-10-19T22:57:00.695Z,8.07
2017-10-19T22:59:28.443Z,8.43
2017-10-19T23:01:56.044Z,7.70
2017-10-19T23:04:23.702Z,7.67
2017-10-19T23:06:51.304Z,7.50
2017-10-19T23:09:18.907Z,8.30
2017-10-19T23:11:46.542Z,7.50
2017-10-19T23:14:14.147Z,7.47
2017-10-19T23:16:41.774Z,7.67
2017-10-19T23:19:09.417Z,7.37
2017-10-19T23:21:37.015Z,6.80
2017-10-19T23:24:04.862Z,7.60
2017-10-19T23:26:32.481Z,7.63
2017-10-19T23:29:00.109Z,7.20
2017-10-19T23:31:27.695Z,6.73
2017-10-19T23:33:55.436Z,7.20
2017-10-19T23:36:23.059Z,6.80
2017-10-19T23:38:50.699Z,7.33
2017-10-19T23:41:18.301Z,8.10
2017-10-19T23:43:45.943Z,7.07
2017-10-19T23:46:13.556Z,7.90
2017-10-19T23:48:41.197Z,7.77
2017-10-19T23:51:08.915Z,6.80
2017-10-19T23:53:36.529Z,7.50
2017-10-19T23:56:04.162Z,7.50
2017-10-19T23:58:31.772Z,7.57
